Time;durP1;ratioP1;P1;durP2;ratioP2;P2;SDS_P1;SDS_P2;PMS_P1;PMS_P2;Temp;Humidity;BMP_temperature;BMP_pressure;BME280_temperature;BME280_humidity;BME280_pressure;Samples;Min_cycle;Max_cycle;Signal;HPM_P1;HPM_P2
2023/06/16 00:02:08;;;;;;;;;3.75;3.75;;;;;21.97;49.47;101935.22;5031495;28;10213;-68
2023/06/16 00:04:35;;;;;;;;;3.00;3.00;;;;;21.97;49.24;101935.22;5036756;28;9643;-68
2023/06/16 00:07:01;;;;;;;;;2.00;2.00;;;;;21.97;49.35;101931.63;5033456;28;8856;-68
2023/06/16 00:09:28;;;;;;;;;3.00;2.75;;;;;21.96;49.10;101932.72;5032247;28;8837;-69
2023/06/16 00:11:55;;;;;;;;;4.00;2.75;;;;;21.96;49.05;101938.19;5026138;28;8860;-68
2023/06/16 00:14:21;;;;;;;;;3.50;3.50;;;;;21.90;48.80;101926.28;5035623;28;9289;-68
2023/06/16 00:16:48;;;;;;;;;3.50;3.50;;;;;21.86;48.81;101925.09;5051762;28;8819;-68
2023/06/16 00:19:15;;;;;;;;;3.75;3.75;;;;;21.81;48.61;101932.41;5032220;28;8866;-68
2023/06/16 00:21:45;;;;;;;;;2.00;2.00;;;;;21.76;48.83;101927.66;5051205;28;8860;-68
2023/06/16 00:24:12;;;;;;;;;5.00;5.00;;;;;21.71;48.79;101924.78;5026039;28;8828;-68
2023/06/16 00:26:38;;;;;;;;;4.50;4.50;;;;;;;;5029890;28;8853;-68
2023/06/16 00:29:05;;;;;;;;;2.75;2.75;;;;;21.64;48.36;101922.19;5031042;28;8834;-68
2023/06/16 00:31:32;;;;;;;;;2.33;2.33;;;;;21.62;48.47;101924.31;5030211;28;8948;-68
2023/06/16 00:33:59;;;;;;;;;3.00;3.00;;;;;21.63;48.15;101926.03;5031031;28;8836;-67
2023/06/16 00:36:26;;;;;;;;;4.00;4.00;;;;;21.60;48.02;101926.50;5030735;28;8826;-68
2023/06/16 00:38:53;;;;;;;;;4.00;4.00;;;;;21.58;47.96;101922.31;5029138;28;8826;-69
2023/06/16 00:41:20;;;;;;;;;3.67;3.67;;;;;21.57;47.63;101926.13;5029427;28;9553;-68
2023/06/16 00:43:46;;;;;;;;;7.25;3.75;;;;;21.52;47.54;101924.13;5015360;28;8963;-68
2023/06/16 00:46:25;;;;;;;;;3.50;3.50;;;;;21.50;47.72;101922.69;5025722;28;8842;-68
2023/06/16 00:48:54;;;;;;;;;4.50;3.75;;;;;21.47;47.69;101930.34;5032682;28;8862;-68
2023/06/16 00:51:28;;;;;;;;;4.25;4.25;;;;;21.44;48.17;101927.25;5042845;28;8931;-68
2023/06/16 00:53:57;;;;;;;;;4.00;3.00;;;;;21.39;48.47;101916.16;5027124;28;8786;-68
2023/06/16 00:56:26;;;;;;;;;5.25;5.25;;;;;21.36;49.07;101925.69;5046818;28;8850;-67
2023/06/16 00:58:56;;;;;;;;;6.50;3.75;;;;;21.33;49.58;101914.38;5035993;28;8852;-66
2023/06/16 01:01:28;;;;;;;;;3.75;3.75;;;;;21.29;50.20;101913.16;5072966;22;8868;-66
2023/06/16 01:03:55;;;;;;;;;7.50;4.50;;;;;21.24;50.85;101909.25;5070803;28;9687;-68
2023/06/16 01:06:41;;;;;;;;;4.25;4.25;;;;;21.20;51.32;101913.53;5041180;28;8831;-66
2023/06/16 01:09:38;;;;;;;;;3.75;3.75;;;;;21.16;51.87;101909.59;5088024;22;8892;-68
2023/06/16 01:12:20;;;;;;;;;4.00;4.00;;;;;21.14;52.49;101905.44;5047510;28;8937;-69
2023/06/16 01:14:56;;;;;;;;;5.67;5.67;;;;;21.12;52.67;101907.59;5045104;28;8873;-68
2023/06/16 01:17:28;;;;;;;;;4.00;4.00;;;;;21.08;53.09;101904.50;5036023;28;8915;-69
2023/06/16 01:20:28;;;;;;;;;4.33;4.33;;;;;21.05;53.78;101898.66;5028210;28;8981;-68
2023/06/16 01:23:16;;;;;;;;;5.33;5.33;;;;;20.99;54.19;101912.22;5028573;28;8918;-69
2023/06/16 01:25:45;;;;;;;;;4.00;4.00;;;;;20.95;54.29;101907.47;5007300;28;9120;-69
2023/06/16 01:28:19;;;;;;;;;6.00;6.00;;;;;20.91;54.90;101912.59;5004057;28;9016;-68
2023/06/16 01:30:50;;;;;;;;;5.67;5.67;;;;;20.88;55.07;101910.31;5019449;28;9022;-68
2023/06/16 01:33:21;;;;;;;;;3.25;3.00;;;;;20.87;55.26;101913.28;5023509;28;9029;-68
2023/06/16 01:35:49;;;;;;;;;7.00;5.00;;;;;20.85;55.23;101913.50;5015525;28;9536;-68
2023/06/16 01:38:18;;;;;;;;;7.00;6.00;;;;;20.82;55.73;101908.50;5026499;28;9067;-69
2023/06/16 01:40:45;;;;;;;;;6.00;6.00;;;;;20.79;56.02;101911.75;5022269;28;9099;-68
2023/06/16 01:43:13;;;;;;;;;6.00;3.00;;;;;20.79;56.18;101913.66;5027479;28;9129;-69
2023/06/16 01:45:41;;;;;;;;;4.67;4.67;;;;;20.76;56.44;101914.09;5018036;28;9000;-69
2023/06/16 01:48:08;;;;;;;;;7.67;6.00;;;;;20.72;56.53;101909.09;5013188;28;9071;-68
2023/06/16 01:50:35;;;;;;;;;7.00;7.00;;;;;20.71;56.57;101909.34;5035067;28;9065;-68
2023/06/16 01:53:01;;;;;;;;;7.00;5.33;;;;;20.67;56.82;101908.16;5028997;28;9075;-68
2023/06/16 01:55:28;;;;;;;;;7.00;5.33;;;;;20.65;56.81;101904.81;5007831;28;8993;-68
2023/06/16 01:57:56;;;;;;;;;7.67;5.00;;;;;20.62;56.87;101908.00;5029582;28;9850;-68
2023/06/16 02:00:27;;;;;;;;;7.67;7.33;;;;;20.59;57.18;101909.31;5044694;28;9050;-68
2023/06/16 02:03:02;;;;;;;;;11.00;6.33;;;;;20.56;57.20;101904.31;5049778;28;9012;-68
2023/06/16 02:05:31;;;;;;;;;6.33;6.33;;;;;20.55;57.38;101912.78;5046415;28;9075;-69
2023/06/16 02:08:01;;;;;;;;;7.00;6.67;;;;;20.53;57.57;101906.69;5032160;28;8913;-68
2023/06/16 02:10:31;;;;;;;;;4.67;4.67;;;;;20.49;57.17;101907.16;5033182;28;9093;-69
2023/06/16 02:12:58;;;;;;;;;7.00;6.67;;;;;20.47;57.51;101909.28;5033060;28;9028;-68
2023/06/16 02:15:27;;;;;;;;;6.33;4.00;;;;;20.45;57.51;101907.81;5044003;28;8916;-68
2023/06/16 02:17:57;;;;;;;;;4.67;4.67;;;;;20.44;57.73;101909.72;5044543;28;8905;-68
2023/06/16 02:20:26;;;;;;;;;4.00;4.00;;;;;20.40;57.77;101913.16;5032207;28;9008;-69
2023/06/16 02:22:53;;;;;;;;;7.00;7.00;;;;;20.39;57.90;101906.03;5053672;28;8986;-69
2023/06/16 02:25:21;;;;;;;;;8.00;6.00;;;;;20.36;57.99;101909.22;5040011;28;9092;-68
2023/06/16 02:27:48;;;;;;;;;4.00;4.00;;;;;20.31;58.22;101909.09;5042153;28;8978;-69
2023/06/16 02:30:15;;;;;;;;;3.67;3.67;;;;;20.28;58.31;101909.56;5027157;28;9010;-68
2023/06/16 02:32:43;;;;;;;;;7.00;7.00;;;;;20.23;58.50;101916.56;5043714;28;9063;-69
2023/06/16 02:35:26;;;;;;;;;7.67;7.67;;;;;20.19;58.83;101909.91;5022819;28;9108;-68
2023/06/16 02:37:53;;;;;;;;;6.50;6.50;;;;;20.17;58.59;101913.91;5015949;28;9012;-69
2023/06/16 02:40:20;;;;;;;;;7.50;4.25;;;;;20.12;58.87;101911.06;5032244;28;8836;-69
2023/06/16 02:42:48;;;;;;;;;7.67;7.00;;;;;20.08;58.94;101910.69;5023671;28;8839;-68
2023/06/16 02:45:15;;;;;;;;;6.00;6.00;;;;;20.04;58.87;101912.19;5012120;28;9005;-69
2023/06/16 02:47:44;;;;;;;;;8.00;6.00;;;;;20.03;59.05;101915.19;5016766;28;9819;-69
2023/06/16 02:50:10;;;;;;;;;6.00;6.00;;;;;20.01;58.97;101915.38;5043729;28;8844;-69
2023/06/16 02:52:41;;;;;;;;;4.00;4.00;;;;;20.00;58.57;101916.47;5051602;28;9759;-69
2023/06/16 02:55:10;;;;;;;;;3.00;3.00;;;;;19.99;58.35;101912.06;5035471;28;9187;-69
2023/06/16 02:57:43;;;;;;;;;4.00;4.00;;;;;19.99;58.01;101906.59;5051667;28;9069;-68
2023/06/16 03:00:11;;;;;;;;;4.67;4.00;;;;;19.97;58.02;101906.00;5051602;28;9162;-68
2023/06/16 03:02:57;;;;;;;;;6.33;4.00;;;;;19.96;57.90;101905.16;5040279;28;9232;-68
2023/06/16 03:05:26;;;;;;;;;4.00;4.00;;;;;19.95;57.94;101908.13;5047385;28;9075;-68
2023/06/16 03:07:52;;;;;;;;;5.67;5.67;;;;;19.93;57.93;101904.78;5034964;28;9259;-69
2023/06/16 03:10:20;;;;;;;;;7.67;7.33;;;;;19.90;57.79;101906.09;5034921;28;9181;-68
2023/06/16 03:12:59;;;;;;;;;5.00;3.67;;;;;19.90;57.87;101908.00;5051007;28;9308;-68
2023/06/16 03:15:27;;;;;;;;;6.00;6.00;;;;;19.89;58.12;101919.97;5040551;28;9180;-69
2023/06/16 03:17:54;;;;;;;;;5.00;5.00;;;;;19.88;58.14;101907.38;5031703;28;9076;-68
2023/06/16 03:20:21;;;;;;;;;5.00;4.33;;;;;19.89;58.14;101907.16;5031287;28;9232;-69
2023/06/16 03:23:01;;;;;;;;;4.33;4.33;;;;;19.93;58.16;101908.38;5015881;28;9028;-68
2023/06/16 03:25:32;;;;;;;;;4.00;3.33;;;;;19.94;57.98;101907.31;5030974;28;9156;-69
2023/06/16 03:28:00;;;;;;;;;6.67;6.00;;;;;19.94;57.78;101907.31;5031333;28;9155;-68
2023/06/16 03:30:26;;;;;;;;;3.00;3.00;;;;;19.97;57.78;101909.59;5024176;28;9171;-68
2023/06/16 03:33:13;;;;;;;;;7.00;6.00;;;;;19.96;57.43;101905.16;5039990;28;9240;-69
2023/06/16 03:35:43;;;;;;;;;3.00;3.00;;;;;19.97;57.29;101908.72;5049418;28;9242;-69
2023/06/16 03:38:33;;;;;;;;;7.00;6.33;;;;;19.97;56.81;101906.00;5037520;28;9181;-68
2023/06/16 03:40:59;;;;;;;;;5.33;5.33;;;;;19.97;56.99;101909.59;5052267;28;9869;-68
2023/06/16 03:43:26;;;;;;;;;6.33;4.67;;;;;19.99;56.74;101904.69;5037246;28;9095;-68
2023/06/16 03:45:54;;;;;;;;;5.67;5.00;;;;;20.01;56.59;101915.38;5034065;28;9075;-68
2023/06/16 03:48:21;;;;;;;;;6.67;5.67;;;;;20.04;56.57;101920.41;5046641;28;9154;-68
2023/06/16 03:50:53;;;;;;;;;5.33;3.33;;;;;20.06;56.30;101912.81;5035087;28;9158;-68
2023/06/16 03:53:20;;;;;;;;;4.33;4.33;;;;;20.08;56.27;101913.41;5050861;28;9051;-68
2023/06/16 03:55:47;;;;;;;;;5.33;5.33;;;;;20.08;56.10;101915.31;5039823;28;9220;-68
2023/06/16 03:58:17;;;;;;;;;5.00;5.00;;;;;20.07;55.69;101911.75;5039027;28;9162;-69
2023/06/16 04:00:43;;;;;;;;;5.33;3.67;;;;;20.07;55.69;101911.75;5038423;28;9089;-68
2023/06/16 04:03:15;;;;;;;;;4.00;4.00;;;;;20.09;55.56;101915.06;5045015;28;9072;-68
2023/06/16 04:05:42;;;;;;;;;3.00;3.00;;;;;20.14;55.26;101917.13;5051503;28;8916;-68
2023/06/16 04:08:08;;;;;;;;;4.00;4.00;;;;;20.23;55.27;101915.72;5051916;28;9010;-69
2023/06/16 04:10:37;;;;;;;;;4.67;4.67;;;;;20.32;54.86;101903.41;5041371;28;8989;-68
2023/06/16 04:13:05;;;;;;;;;4.00;4.00;;;;;20.31;54.85;101906.38;5041489;28;9061;-69
2023/06/16 04:15:35;;;;;;;;;3.67;3.67;;;;;20.27;54.85;101913.38;5034135;28;8975;-68
2023/06/16 04:18:02;;;;;;;;;4.00;4.00;;;;;20.21;54.95;101915.13;5033749;28;9140;-68
2023/06/16 04:20:29;;;;;;;;;4.00;3.00;;;;;20.17;55.08;101916.66;5033943;28;8917;-68
2023/06/16 04:22:56;;;;;;;;;6.00;4.25;;;;;20.12;55.27;101916.50;5050078;28;8917;-68
2023/06/16 04:25:23;;;;;;;;;2.00;2.00;;;;;20.09;55.27;101920.53;5044088;28;8837;-69
2023/06/16 04:27:52;;;;;;;;;4.00;4.00;;;;;20.04;55.44;101917.66;5033824;28;8988;-68
2023/06/16 04:30:22;;;;;;;;;7.33;4.67;;;;;20.01;55.64;101915.38;5050057;28;8935;-68
2023/06/16 04:32:49;;;;;;;;;5.00;5.00;;;;;19.98;55.63;101916.72;5047363;28;9112;-69
2023/06/16 04:35:18;;;;;;;;;4.67;3.67;;;;;19.95;56.00;101913.59;5040469;28;9033;-69
2023/06/16 04:37:45;;;;;;;;;5.00;4.00;;;;;19.93;55.98;101919.31;5049710;28;9074;-68
2023/06/16 04:40:12;;;;;;;;;3.00;3.00;;;;;19.91;55.98;101913.22;5038166;28;9915;-69
2023/06/16 04:42:39;;;;;;;;;2.67;2.67;;;;;19.89;56.08;101917.22;5048098;28;9066;-69
2023/06/16 04:45:07;;;;;;;;;6.67;6.33;;;;;19.87;56.15;101917.47;5033238;28;9255;-69
2023/06/16 04:47:40;;;;;;;;;3.00;3.00;;;;;19.89;56.35;101922.69;5049726;28;9802;-69
2023/06/16 04:50:08;;;;;;;;;7.33;3.67;;;;;19.91;56.29;101926.88;5050966;28;9094;-68
2023/06/16 04:52:36;;;;;;;;;4.00;2.67;;;;;19.95;56.64;101930.00;5039187;28;9156;-68
2023/06/16 04:55:04;;;;;;;;;2.00;2.00;;;;;19.98;56.90;101927.63;5034318;28;9182;-69
2023/06/16 04:57:32;;;;;;;;;2.00;2.00;;;;;20.01;57.44;101929.06;5043966;28;8989;-68
2023/06/16 05:00:00;;;;;;;;;4.33;3.67;;;;;20.03;57.92;101931.56;5050773;28;9153;-68
2023/06/16 05:02:27;;;;;;;;;3.00;2.67;;;;;20.04;58.62;101934.06;5049380;28;9247;-69
2023/06/16 05:04:53;;;;;;;;;7.00;4.33;;;;;20.05;59.01;101934.91;5050285;28;9091;-69
2023/06/16 05:07:20;;;;;;;;;5.33;5.33;;;;;20.06;59.00;101933.84;5037001;28;9235;-69
2023/06/16 05:09:47;;;;;;;;;5.67;5.67;;;;;20.05;59.43;101929.44;5041672;28;9069;-69
2023/06/16 05:12:13;;;;;;;;;5.33;4.00;;;;;20.06;59.68;101931.97;5038783;28;9165;-67
2023/06/16 05:14:40;;;;;;;;;4.67;4.00;;;;;20.08;59.79;101939.91;5040212;28;9814;-67
2023/06/16 05:17:08;;;;;;;;;4.33;3.67;;;;;20.11;59.85;101943.03;5049149;28;9060;-66
2023/06/16 05:19:36;;;;;;;;;3.00;3.00;;;;;20.15;59.76;101937.94;5049011;28;9155;-68
2023/06/16 05:22:03;;;;;;;;;2.25;2.25;;;;;20.18;59.78;101940.22;5047942;28;8976;-67
2023/06/16 05:24:31;;;;;;;;;2.00;2.00;;;;;20.22;59.79;101933.22;5034781;28;9582;-66
2023/06/16 05:26:59;;;;;;;;;4.00;4.00;;;;;20.29;59.43;101939.41;5048992;28;8810;-67
2023/06/16 05:29:26;;;;;;;;;4.75;3.00;;;;;20.39;59.30;101939.69;5049043;28;9568;-67
2023/06/16 05:31:53;;;;;;;;;3.00;3.00;;;;;20.54;58.90;101942.03;5042856;28;8851;-68
2023/06/16 05:34:22;;;;;;;;;4.00;4.00;;;;;20.69;58.48;101941.56;5033585;28;8835;-67
2023/06/16 05:36:49;;;;;;;;;6.67;6.67;;;;;20.91;58.13;101941.88;5043809;28;8940;-67
2023/06/16 05:39:17;;;;;;;;;4.00;4.00;;;;;21.14;57.49;101944.59;5033846;28;8931;-66
2023/06/16 05:41:45;;;;;;;;;7.00;7.00;;;;;21.30;56.36;101934.81;5030629;28;8848;-67
2023/06/16 05:44:14;;;;;;;;;6.00;4.50;;;;;21.47;55.81;101933.06;5032375;28;8834;-66
2023/06/16 05:46:41;;;;;;;;;3.00;3.00;;;;;21.59;55.22;101935.81;5030840;28;8930;-67
2023/06/16 05:49:08;;;;;;;;;4.00;4.00;;;;;21.70;55.14;101945.06;5037058;28;8812;-67
2023/06/16 05:51:35;;;;;;;;;3.75;3.75;;;;;21.83;55.09;101941.19;5046612;28;8836;-67
2023/06/16 05:54:01;;;;;;;;;4.00;3.50;;;;;21.90;55.07;101944.66;5048526;28;8826;-67
2023/06/16 05:56:28;;;;;;;;;3.25;2.50;;;;;21.89;54.77;101941.06;5032790;28;8854;-67
2023/06/16 05:58:55;;;;;;;;;4.25;4.25;;;;;21.76;53.75;101946.00;5048966;28;8956;-66
2023/06/16 06:01:21;;;;;;;;;7.00;7.00;;;;;21.66;54.20;101952.91;5028605;28;8911;-67
2023/06/16 06:03:48;;;;;;;;;5.25;5.25;;;;;21.62;53.86;101948.16;5040377;28;8829;-68
2023/06/16 06:06:19;;;;;;;;;4.75;4.75;;;;;21.60;53.96;101953.06;5048395;28;8880;-67
2023/06/16 06:08:46;;;;;;;;;5.00;3.75;;;;;21.59;53.89;101957.72;5048391;28;8810;-66
2023/06/16 06:11:15;;;;;;;;;5.75;4.50;;;;;21.61;54.11;101957.47;5032470;28;8833;-67
2023/06/16 06:13:41;;;;;;;;;5.25;5.00;;;;;21.63;54.00;101953.41;5031817;28;8848;-67
2023/06/16 06:16:11;;;;;;;;;4.75;4.75;;;;;21.62;53.94;101949.00;5026702;28;8919;-66
2023/06/16 06:18:38;;;;;;;;;6.25;6.25;;;;;21.60;53.70;101947.59;5040326;28;8811;-67
2023/06/16 06:21:05;;;;;;;;;4.00;4.00;;;;;21.51;53.63;101949.84;5048373;28;8848;-67
2023/06/16 06:23:31;;;;;;;;;8.00;6.50;;;;;21.33;54.20;101947.25;5049617;28;8873;-67
2023/06/16 06:25:58;;;;;;;;;3.00;3.00;;;;;21.27;55.01;101950.91;5047995;28;8854;-67
2023/06/16 06:28:24;;;;;;;;;5.00;4.50;;;;;21.28;55.55;101966.28;5048202;28;9561;-66
2023/06/16 06:30:52;;;;;;;;;8.00;7.25;;;;;21.32;55.62;101962.84;5026562;28;8842;-67
2023/06/16 06:33:20;;;;;;;;;7.33;7.00;;;;;21.29;55.75;101960.56;5034821;28;8846;-67
2023/06/16 06:35:46;;;;;;;;;6.00;3.50;;;;;21.30;55.66;101964.94;5038598;28;8946;-67
2023/06/16 06:38:13;;;;;;;;;9.50;8.00;;;;;21.32;55.72;101968.34;5042975;28;8834;-67
2023/06/16 06:40:40;;;;;;;;;8.00;8.00;;;;;21.30;55.51;101966.88;5028145;28;8834;-67
2023/06/16 06:43:08;;;;;;;;;4.00;4.00;;;;;21.30;56.07;101962.22;5049023;28;8971;-67
2023/06/16 06:45:45;;;;;;;;;5.50;4.50;;;;;21.34;55.97;101966.16;5047040;28;8834;-68
2023/06/16 06:48:11;;;;;;;;;8.75;6.00;;;;;21.37;56.04;101968.44;5041453;28;8838;-66
2023/06/16 06:50:40;;;;;;;;;6.00;6.00;;;;;21.41;56.11;101966.88;5039820;28;8822;-68
2023/06/16 06:53:07;;;;;;;;;7.75;7.00;;;;;21.43;56.11;101964.75;5031477;28;8868;-67
2023/06/16 06:55:33;;;;;;;;;7.25;6.00;;;;;21.42;56.03;101974.03;5047669;28;8964;-67
2023/06/16 06:58:00;;;;;;;;;6.75;6.75;;;;;21.42;55.82;101967.72;5040863;28;9536;-67
2023/06/16 07:00:27;;;;;;;;;7.00;7.00;;;;;21.40;55.42;101967.97;5044515;28;8948;-67
2023/06/16 07:02:53;;;;;;;;;9.00;6.00;;;;;21.39;55.37;101968.19;5051620;28;8818;-66
2023/06/16 07:05:20;;;;;;;;;6.75;6.75;;;;;21.39;55.46;101966.31;5035354;28;8905;-67
2023/06/16 07:07:46;;;;;;;;;6.25;6.25;;;;;21.44;55.25;101966.41;5044496;28;8830;-68
2023/06/16 07:10:13;;;;;;;;;7.50;6.50;;;;;21.47;55.72;101965.94;5052719;28;8833;-66
2023/06/16 07:12:39;;;;;;;;;5.75;4.25;;;;;21.50;55.09;101967.34;5052453;28;8840;-67
2023/06/16 07:15:06;;;;;;;;;6.25;6.25;;;;;21.50;54.56;101970.09;5051255;28;8848;-67
2023/06/16 07:17:34;;;;;;;;;4.00;4.00;;;;;21.52;54.94;101970.69;5051304;28;8850;-67
2023/06/16 07:20:03;;;;;;;;;6.00;6.00;;;;;21.58;54.91;101969.72;5027476;28;9100;-66
2023/06/16 07:22:30;;;;;;;;;7.50;7.50;;;;;21.64;54.16;101973.44;5039043;28;8834;-66
2023/06/16 07:24:56;;;;;;;;;7.00;5.00;;;;;21.63;52.88;101974.47;5044585;28;8813;-66
2023/06/16 07:27:23;;;;;;;;;3.50;3.50;;;;;21.67;53.09;101965.56;5052653;28;9710;-67
2023/06/16 07:29:49;;;;;;;;;6.25;3.50;;;;;21.69;53.44;101963.41;5046908;28;8822;-67
2023/06/16 07:32:16;;;;;;;;;3.50;3.25;;;;;21.75;53.01;101969.00;5040360;28;8837;-67
2023/06/16 07:34:44;;;;;;;;;6.75;6.75;;;;;21.77;52.86;101969.59;5050553;28;8868;-67
2023/06/16 07:37:11;;;;;;;;;4.00;4.00;;;;;21.81;52.97;101970.78;5050767;28;8854;-67
2023/06/16 07:39:37;;;;;;;;;5.25;4.75;;;;;21.83;53.25;101971.34;5052190;28;8833;-68
2023/06/16 07:42:04;;;;;;;;;5.00;5.00;;;;;21.86;53.33;101966.22;5051588;28;8879;-68
2023/06/16 07:44:30;;;;;;;;;8.00;8.00;;;;;21.90;52.04;101975.63;5044866;28;8820;-67
2023/06/16 07:46:57;;;;;;;;;4.00;4.00;;;;;21.91;52.05;101973.72;5043890;28;8850;-67
2023/06/16 07:49:24;;;;;;;;;7.00;7.00;;;;;21.93;51.59;101975.16;5051946;28;8829;-68
2023/06/16 07:51:50;;;;;;;;;9.25;8.75;;;;;21.92;51.49;101978.97;5036458;28;8814;-67
2023/06/16 07:54:17;;;;;;;;;6.75;6.00;;;;;21.92;51.35;101984.47;5036590;28;9567;-67
2023/06/16 07:56:44;;;;;;;;;6.75;5.50;;;;;21.95;51.00;101978.47;5032290;28;8837;-68
2023/06/16 07:59:10;;;;;;;;;9.50;5.50;;;;;22.02;50.15;101978.34;5031203;28;8825;-66
2023/06/16 08:01:37;;;;;;;;;10.50;8.00;;;;;22.04;49.58;101969.84;5024686;28;8849;-66
2023/06/16 08:04:03;;;;;;;;;5.25;5.25;;;;;22.05;50.12;101968.81;5043428;28;8838;-66
2023/06/16 08:06:30;;;;;;;;;7.50;6.50;;;;;22.05;49.97;101966.91;5039782;28;8853;-67
2023/06/16 08:08:57;;;;;;;;;6.50;6.50;;;;;22.14;49.94;101972.84;5044230;28;8850;-66
2023/06/16 08:11:24;;;;;;;;;9.25;8.00;;;;;22.14;49.38;101964.63;5034282;28;8967;-67
2023/06/16 08:13:50;;;;;;;;;5.00;5.00;;;;;22.13;48.96;101958.31;5051400;28;8946;-66
2023/06/16 08:16:17;;;;;;;;;5.75;5.25;;;;;22.23;48.79;101960.41;5051465;28;8860;-67
2023/06/16 08:18:43;;;;;;;;;7.25;6.00;;;;;22.27;48.61;101963.50;5051580;28;8822;-66
2023/06/16 08:21:10;;;;;;;;;5.00;5.00;;;;;22.29;48.85;101959.44;5019601;28;8820;-66
2023/06/16 08:23:36;;;;;;;;;5.25;5.25;;;;;22.35;48.31;101957.63;5049406;28;9561;-67
2023/06/16 08:26:04;;;;;;;;;7.25;7.25;;;;;22.42;48.01;101958.31;5051317;28;9587;-67
2023/06/16 08:28:31;;;;;;;;;6.50;6.50;;;;;22.46;47.07;101959.47;5051432;28;8814;-67
2023/06/16 08:30:57;;;;;;;;;8.00;7.00;;;;;22.44;45.64;101953.38;5041970;28;9558;-66
2023/06/16 08:33:24;;;;;;;;;4.00;4.00;;;;;22.44;45.70;101953.38;5039462;28;8955;-67
2023/06/16 08:35:50;;;;;;;;;7.50;5.00;;;;;22.50;45.40;101955.16;5045886;28;8821;-69
2023/06/16 08:38:17;;;;;;;;;5.75;5.75;;;;;22.52;45.04;101950.25;5042060;28;8878;-67
2023/06/16 08:40:43;;;;;;;;;4.50;4.50;;;;;22.53;45.13;101949.19;5051047;28;8844;-66
2023/06/16 08:43:12;;;;;;;;;5.75;5.75;;;;;22.53;44.88;101957.41;5027568;28;8849;-67
2023/06/16 08:45:39;;;;;;;;;6.00;4.00;;;;;22.55;44.03;101951.66;5019424;28;8864;-68
2023/06/16 08:48:06;;;;;;;;;4.75;4.75;;;;;22.59;44.37;101952.84;5029937;28;8961;-67
2023/06/16 08:50:33;;;;;;;;;4.25;4.00;;;;;22.62;43.24;101957.84;5018705;28;8843;-66
2023/06/16 08:53:01;;;;;;;;;3.75;3.00;;;;;22.65;42.57;101955.44;5014070;28;8861;-67
2023/06/16 08:55:29;;;;;;;;;5.75;5.00;;;;;22.71;41.50;101959.09;5038395;28;8858;-68
2023/06/16 08:57:58;;;;;;;;;5.50;4.25;;;;;22.75;40.48;101951.19;5022033;28;8956;-68
2023/06/16 09:00:26;;;;;;;;;6.75;5.00;;;;;22.77;38.74;101944.38;5032416;28;8850;-68
2023/06/16 09:02:56;;;;;;;;;8.00;7.00;;;;;22.81;38.24;101950.19;5036373;28;8810;-66
2023/06/16 09:05:26;;;;;;;;;4.75;4.75;;;;;22.86;39.44;101942.88;5041031;28;8817;-68
2023/06/16 09:07:53;;;;;;;;;5.25;4.00;;;;;22.90;39.34;101943.22;5030736;28;8821;-67
2023/06/16 09:10:20;;;;;;;;;5.25;4.00;;;;;22.92;38.51;101944.66;5029651;28;9519;-67
2023/06/16 09:12:52;;;;;;;;;7.25;5.00;;;;;23.01;39.17;101942.34;5009439;28;8883;-67
2023/06/16 09:15:19;;;;;;;;;3.25;3.25;;;;;23.03;39.38;101942.91;5010803;28;8833;-67
2023/06/16 09:17:48;;;;;;;;;6.75;6.75;;;;;23.05;35.86;101946.25;5011135;28;8846;-68
2023/06/16 09:20:15;;;;;;;;;5.25;5.00;;;;;23.09;34.77;101941.06;5037125;28;8848;-67
2023/06/16 09:22:59;;;;;;;;;5.25;4.75;;;;;23.12;36.62;101951.53;5040997;28;8870;-67
2023/06/16 09:25:26;;;;;;;;;6.25;6.25;;;;;23.20;35.80;101949.19;5041726;28;8801;-69
2023/06/16 09:27:54;;;;;;;;;4.50;4.50;;;;;23.23;36.67;101947.03;5049191;28;8842;-67
2023/06/16 09:30:21;;;;;;;;;5.25;4.50;;;;;23.30;36.21;101943.03;5050255;28;8861;-67
2023/06/16 09:32:51;;;;;;;;;8.00;8.00;;;;;23.39;37.03;101944.25;5065434;28;8973;-68
2023/06/16 09:35:21;;;;;;;;;6.00;4.25;;;;;23.45;36.91;101939.66;5041033;28;8845;-67
2023/06/16 09:37:50;;;;;;;;;4.50;4.50;;;;;23.42;36.37;101941.03;5041473;28;8826;-67
2023/06/16 09:40:19;;;;;;;;;3.75;3.75;;;;;23.44;37.16;101943.50;5041544;28;8848;-68
2023/06/16 09:42:48;;;;;;;;;6.00;5.00;;;;;23.51;37.48;101943.34;5047808;28;8837;-67
2023/06/16 09:45:16;;;;;;;;;5.00;5.00;;;;;23.52;36.72;101942.22;5049860;28;8895;-67
2023/06/16 09:47:47;;;;;;;;;5.75;5.00;;;;;23.56;37.62;101943.38;5037243;28;9554;-68
2023/06/16 09:50:15;;;;;;;;;4.00;4.00;;;;;23.58;37.74;101946.72;5028268;28;8828;-67
2023/06/16 09:52:44;;;;;;;;;4.00;3.25;;;;;23.64;38.15;101945.69;5030837;28;8839;-66
2023/06/16 09:55:12;;;;;;;;;6.50;6.50;;;;;23.58;35.25;101947.56;5028496;28;8840;-68
2023/06/16 09:57:41;;;;;;;;;9.50;8.00;;;;;23.68;33.70;101944.97;5019079;28;8847;-67
2023/06/16 10:00:15;;;;;;;;;4.50;4.00;;;;;23.73;34.35;101944.19;5029963;28;8841;-67
2023/06/16 10:02:48;;;;;;;;;3.50;3.50;;;;;23.79;34.94;101948.69;5029070;28;8848;-67
2023/06/16 10:05:18;;;;;;;;;4.00;4.00;;;;;23.81;35.73;101949.25;5030117;28;8833;-66
2023/06/16 10:07:48;;;;;;;;;6.25;6.25;;;;;23.80;35.95;101944.00;5030627;28;8840;-66
2023/06/16 10:10:16;;;;;;;;;5.25;5.00;;;;;23.81;34.56;101952.00;5009075;28;8815;-67
2023/06/16 10:12:48;;;;;;;;;4.25;4.25;;;;;23.81;33.74;101952.00;5012589;28;9574;-67
2023/06/16 10:15:21;;;;;;;;;5.25;5.25;;;;;23.83;33.85;101943.50;5028298;28;8879;-66
2023/06/16 10:17:54;;;;;;;;;4.50;4.50;;;;;23.84;35.17;101942.41;5025763;28;8969;-67
2023/06/16 10:20:25;;;;;;;;;5.25;5.25;;;;;23.89;34.47;101945.22;5008780;28;8859;-67
2023/06/16 10:22:52;;;;;;;;;5.00;4.25;;;;;23.93;34.79;101938.09;5008697;28;8835;-68
2023/06/16 10:25:19;;;;;;;;;5.00;4.00;;;;;23.95;36.37;101937.88;5007233;28;9479;-67
2023/06/16 10:27:47;;;;;;;;;7.75;7.25;;;;;24.01;36.77;101936.81;5010036;28;8862;-67
2023/06/16 10:30:19;;;;;;;;;6.00;6.00;;;;;24.00;36.22;101932.41;5009364;28;8823;-67
2023/06/16 10:32:47;;;;;;;;;8.00;6.25;;;;;23.91;36.36;101930.13;5013198;28;9570;-68
2023/06/16 10:35:14;;;;;;;;;7.00;7.00;;;;;23.96;36.44;101931.28;5032987;28;8951;-66
2023/06/16 10:37:40;;;;;;;;;7.25;3.75;;;;;23.95;37.60;101924.13;5033460;28;9697;-67
2023/06/16 10:40:12;;;;;;;;;8.00;7.75;;;;;24.03;38.06;101932.75;5033260;28;8821;-67
2023/06/16 10:42:40;;;;;;;;;9.00;5.25;;;;;24.03;37.74;101931.91;5033682;28;8824;-68
2023/06/16 10:45:23;;;;;;;;;8.25;7.50;;;;;24.01;36.77;101923.91;5031915;28;8886;-67
2023/06/16 10:48:01;;;;;;;;;8.50;8.00;;;;;24.02;36.78;101922.81;5033198;28;8848;-67
2023/06/16 10:50:38;;;;;;;;;8.00;5.75;;;;;24.03;37.47;101924.50;5033365;28;8861;-68
2023/06/16 10:53:19;;;;;;;;;4.75;4.75;;;;;24.11;38.72;101921.28;5028053;28;9029;-69
2023/06/16 10:55:45;;;;;;;;;6.00;6.00;;;;;24.20;37.33;101920.81;5026825;28;8854;-68
2023/06/16 10:58:15;;;;;;;;;6.00;6.00;;;;;24.26;38.01;101919.75;5028675;28;8935;-68
2023/06/16 11:00:42;;;;;;;;;5.75;5.25;;;;;24.25;37.39;101918.09;5039320;28;8967;-69
2023/06/16 11:03:09;;;;;;;;;6.25;6.25;;;;;24.24;37.15;101913.69;5036743;28;8853;-68
2023/06/16 11:05:37;;;;;;;;;6.33;6.33;;;;;24.28;37.10;101917.59;5020254;28;8831;-67
2023/06/16 11:08:08;;;;;;;;;6.00;6.00;;;;;24.26;37.70;101911.50;5031321;28;8831;-67
2023/06/16 11:10:54;;;;;;;;;9.25;9.25;;;;;24.27;37.01;101911.25;5011371;28;8847;-67
2023/06/16 11:13:27;;;;;;;;;7.50;7.50;;;;;24.29;37.56;101917.31;5041557;28;8834;-68
2023/06/16 11:15:54;;;;;;;;;5.75;5.75;;;;;24.31;37.75;101908.81;5031884;28;8824;-69
2023/06/16 11:18:25;;;;;;;;;8.75;6.50;;;;;24.37;37.65;101905.00;5048249;28;8818;-69
2023/06/16 11:20:56;;;;;;;;;7.50;7.00;;;;;24.40;36.61;101910.03;5040103;28;8821;-68
2023/06/16 11:23:23;;;;;;;;;9.75;9.75;;;;;24.40;36.72;101912.78;5048563;28;8873;-68
2023/06/16 11:25:50;;;;;;;;;5.00;5.00;;;;;24.38;36.87;101909.44;5039751;28;8836;-69
2023/06/16 11:28:20;;;;;;;;;6.50;5.75;;;;;24.39;35.25;101911.97;5026136;28;8910;-68
2023/06/16 11:30:48;;;;;;;;;3.75;3.75;;;;;24.42;35.78;101914.16;5011750;28;9534;-67
2023/06/16 11:33:15;;;;;;;;;7.75;7.25;;;;;24.56;34.98;101913.75;5019984;28;8836;-68
2023/06/16 11:35:42;;;;;;;;;7.00;5.75;;;;;24.63;35.11;101908.84;5027710;28;8963;-68
2023/06/16 11:38:09;;;;;;;;;8.75;6.75;;;;;24.70;34.31;101908.63;5023219;28;8891;-68
2023/06/16 11:40:35;;;;;;;;;7.50;7.00;;;;;24.71;34.55;101908.34;5015480;28;8823;-68
2023/06/16 11:43:03;;;;;;;;;8.00;6.75;;;;;24.67;35.17;101915.47;5018744;28;8877;-68